Time;durP1;ratioP1;P1;durP2;ratioP2;P2;SDS_P1;SDS_P2;PMS_P1;PMS_P2;Temp;Humidity;BMP_temperature;BMP_pressure;BME280_temperature;BME280_humidity;BME280_pressure;Samples;Min_cycle;Max_cycle;Signal;HPM_P1;HPM_P2
2022/12/10 06:10:35;;;;;;;4.20;3.53;;;18.10;99.90;;;;;;5811448;23;20579;-74
2022/12/10 06:13:02;;;;;;;3.38;3.13;;;18.00;99.90;;;;;;4993970;28;20219;-74
2022/12/10 06:15:29;;;;;;;3.80;3.10;;;18.20;99.90;;;;;;4994162;28;20202;-74
2022/12/10 06:17:56;;;;;;;3.47;3.17;;;18.10;99.90;;;;;;4993781;28;20696;-74
2022/12/10 06:20:23;;;;;;;4.43;4.03;;;18.20;99.90;;;;;;4993659;28;20218;-74
2022/12/10 06:22:49;;;;;;;4.22;3.40;;;18.20;99.90;;;;;;4994028;28;20206;-74
2022/12/10 06:25:16;;;;;;;7.20;3.70;;;18.20;99.90;;;;;;4994536;28;20206;-74
2022/12/10 06:27:45;;;;;;;3.70;3.40;;;18.10;99.90;;;;;;4993965;28;20202;-74
2022/12/10 06:30:12;;;;;;;3.78;3.47;;;18.20;99.90;;;;;;4993506;28;20727;-74
2022/12/10 06:32:39;;;;;;;4.05;3.35;;;18.10;99.90;;;;;;4993943;28;20210;-74
2022/12/10 06:35:06;;;;;;;4.35;3.83;;;18.10;99.90;;;;;;4993888;28;20239;-74
2022/12/10 06:37:33;;;;;;;4.90;3.80;;;18.10;99.90;;;;;;4993579;28;20206;-74
2022/12/10 06:40:00;;;;;;;4.40;3.58;;;18.20;99.90;;;;;;4993766;28;20230;-74
2022/12/10 06:42:27;;;;;;;4.85;3.47;;;18.10;99.90;;;;;;4993858;28;20202;-74
2022/12/10 06:44:55;;;;;;;4.95;3.85;;;18.20;99.90;;;;;;4993507;28;20585;-74
2022/12/10 06:47:21;;;;;;;5.18;3.22;;;18.10;99.90;;;;;;4993788;28;20198;-74
2022/12/10 06:49:48;;;;;;;3.40;3.13;;;18.10;99.90;;;;;;4993618;28;20234;-74
2022/12/10 06:52:15;;;;;;;7.80;3.55;;;18.10;99.90;;;;;;4993777;28;20203;-73
2022/12/10 06:54:41;;;;;;;3.80;3.50;;;18.10;99.90;;;;;;4993731;28;20202;-73
2022/12/10 06:57:08;;;;;;;6.57;3.20;;;18.10;99.90;;;;;;4993724;28;20253;-73
2022/12/10 06:59:35;;;;;;;5.30;3.40;;;18.10;99.90;;;;;;4993629;28;20214;-73
2022/12/10 07:02:03;;;;;;;4.28;3.40;;;18.10;99.90;;;;;;4993415;28;20234;-74
2022/12/10 07:04:30;;;;;;;3.67;3.38;;;18.10;99.90;;;;;;4993639;28;20210;-74
2022/12/10 07:06:57;;;;;;;6.80;3.60;;;18.10;99.90;;;;;;4993579;28;20222;-74
2022/12/10 07:09:24;;;;;;;5.15;3.78;;;18.10;99.90;;;;;;4996489;28;20210;-73
2022/12/10 07:11:51;;;;;;;5.30;3.35;;;18.10;99.90;;;;;;4996991;28;20257;-74
2022/12/10 07:14:18;;;;;;;4.65;3.40;;;18.20;99.90;;;;;;4996639;28;20206;-75
2022/12/10 07:16:45;;;;;;;5.88;3.47;;;18.20;99.90;;;;;;4996981;28;20206;-75
2022/12/10 07:19:13;;;;;;;8.07;3.47;;;18.20;99.90;;;;;;4996985;28;20570;-75
2022/12/10 07:21:42;;;;;;;10.27;3.42;;;18.20;99.90;;;;;;4996756;28;20233;-74
2022/12/10 07:24:12;;;;;;;6.43;3.70;;;18.20;99.90;;;;;;4996580;28;20666;-75
2022/12/10 07:26:40;;;;;;;5.88;3.55;;;18.30;99.90;;;;;;4996843;28;20206;-75
2022/12/10 07:29:10;;;;;;;3.47;3.17;;;18.20;99.90;;;;;;4996711;28;20562;-75
2022/12/10 07:31:37;;;;;;;5.38;3.70;;;18.20;99.90;;;;;;4996508;28;20233;-75
2022/12/10 07:34:04;;;;;;;12.60;4.03;;;18.20;99.90;;;;;;4996599;28;20213;-74
2022/12/10 07:36:32;;;;;;;4.28;3.88;;;18.20;99.90;;;;;;4996557;28;20210;-74
2022/12/10 07:38:59;;;;;;;3.58;3.15;;;18.20;99.90;;;;;;4996560;28;20203;-74
2022/12/10 07:41:26;;;;;;;4.07;3.72;;;18.10;99.90;;;;;;4996425;28;20222;-74
2022/12/10 07:43:53;;;;;;;3.58;3.28;;;18.10;99.90;;;;;;4996429;28;20206;-74
2022/12/10 07:46:22;;;;;;;5.22;3.58;;;18.10;99.90;;;;;;4996376;28;20209;-74
2022/12/10 07:48:50;;;;;;;6.07;4.07;;;18.10;99.90;;;;;;4996348;28;20300;-74
2022/12/10 07:51:18;;;;;;;3.97;3.67;;;18.10;99.90;;;;;;4996169;28;20233;-74
2022/12/10 07:53:46;;;;;;;5.78;3.47;;;18.10;99.90;;;;;;4996246;28;20203;-74
2022/12/10 07:56:13;;;;;;;8.10;3.85;;;18.00;99.90;;;;;;4995941;28;20206;-74
2022/12/10 07:58:43;;;;;;;5.40;3.70;;;18.10;99.90;;;;;;4996223;28;20225;-74
2022/12/10 08:01:11;;;;;;;16.77;4.40;;;18.10;99.90;;;;;;4996100;28;20221;-73
2022/12/10 08:03:39;;;;;;;16.77;5.00;;;18.10;99.90;;;;;;4996133;28;20206;-73
2022/12/10 08:06:08;;;;;;;8.15;3.97;;;18.20;99.90;;;;;;4995766;28;20793;-73
2022/12/10 08:08:36;;;;;;;18.65;4.07;;;18.20;99.90;;;;;;4995999;28;20199;-73
2022/12/10 08:11:05;;;;;;;23.85;15.68;;;18.40;99.90;;;;;;4996028;28;20601;-74
2022/12/10 08:13:33;;;;;;;21.42;12.15;;;18.40;99.90;;;;;;4995638;28;20210;-77
2022/12/10 08:16:02;;;;;;;25.20;12.73;;;18.30;99.90;;;;;;4995597;28;20669;-76
2022/12/10 08:18:29;;;;;;;34.75;12.43;;;18.10;99.90;;;;;;4995542;28;20253;-76
2022/12/10 08:20:56;;;;;;;31.17;11.98;;;18.10;99.90;;;;;;4995679;28;20225;-76
2022/12/10 08:23:22;;;;;;;25.15;10.48;;;18.10;99.90;;;;;;4995722;28;20206;-76
2022/12/10 08:25:49;;;;;;;19.73;10.38;;;18.10;99.90;;;;;;4995690;28;20206;-75
2022/12/10 08:28:17;;;;;;;22.98;10.02;;;18.20;99.90;;;;;;4995650;28;20233;-74
2022/12/10 08:30:46;;;;;;;16.02;10.13;;;18.20;99.90;;;;;;4995444;28;20222;-74
2022/12/10 08:33:13;;;;;;;15.65;9.88;;;18.30;99.90;;;;;;4995492;28;20202;-73
2022/12/10 08:35:40;;;;;;;17.55;9.88;;;18.30;99.90;;;;;;4995484;28;20213;-73
2022/12/10 08:38:07;;;;;;;17.63;9.45;;;18.40;99.90;;;;;;4995415;28;20228;-73
2022/12/10 08:40:33;;;;;;;27.58;9.43;;;18.50;99.90;;;;;;4995353;28;20234;-73
2022/12/10 08:43:00;;;;;;;17.75;8.45;;;18.50;99.90;;;;;;4995334;28;20206;-73
2022/12/10 08:45:28;;;;;;;24.10;8.73;;;18.60;99.90;;;;;;4995309;28;20206;-76
2022/12/10 08:47:55;;;;;;;26.38;9.45;;;18.60;99.90;;;;;;4995261;28;20213;-76
2022/12/10 08:50:22;;;;;;;16.10;8.63;;;18.60;99.90;;;;;;4995051;28;20218;-76
2022/12/10 08:52:48;;;;;;;14.75;8.05;;;18.60;99.90;;;;;;4995121;28;20238;-76
2022/12/10 08:55:15;;;;;;;22.15;8.82;;;18.60;99.90;;;;;;4995080;28;20198;-76
2022/12/10 08:57:42;;;;;;;19.02;8.38;;;18.60;99.90;;;;;;4995033;28;20206;-76
2022/12/10 09:00:10;;;;;;;21.92;8.45;;;18.70;99.90;;;;;;4994954;28;20228;-76
2022/12/10 09:02:38;;;;;;;24.05;7.93;;;18.70;99.90;;;;;;4994686;28;20700;-76
2022/12/10 09:05:05;;;;;;;16.42;7.43;;;18.70;99.90;;;;;;4994926;28;20207;-75
2022/12/10 09:07:32;;;;;;;19.20;8.20;;;18.80;99.90;;;;;;4994608;28;20202;-75
2022/12/10 09:09:59;;;;;;;11.00;7.25;;;18.80;99.90;;;;;;4994743;28;20229;-75
2022/12/10 09:12:26;;;;;;;10.93;6.70;;;18.80;99.90;;;;;;4994376;28;20682;-76
2022/12/10 09:14:52;;;;;;;15.48;6.65;;;18.90;99.90;;;;;;4994870;28;20202;-73
2022/12/10 09:17:19;;;;;;;19.60;6.35;;;18.90;99.90;;;;;;4994758;28;20206;-75
2022/12/10 09:19:47;;;;;;;11.27;7.13;;;18.80;99.90;;;;;;4994627;28;20249;-74
2022/12/10 09:22:14;;;;;;;18.67;7.35;;;18.70;99.90;;;;;;4994339;28;20677;-74
2022/12/10 09:24:41;;;;;;;21.38;7.00;;;18.60;99.90;;;;;;4994345;28;20575;-74
2022/12/10 09:27:07;;;;;;;9.98;6.07;;;18.50;99.90;;;;;;4994516;28;20202;-74
2022/12/10 09:29:34;;;;;;;8.50;5.93;;;18.40;99.90;;;;;;4994499;28;20206;-76
2022/12/10 09:32:01;;;;;;;10.65;6.90;;;18.30;99.90;;;;;;4994025;28;20388;-76
2022/12/10 09:34:28;;;;;;;10.25;6.05;;;18.30;99.90;;;;;;4994257;28;20574;-75
2022/12/10 09:36:56;;;;;;;12.25;6.90;;;18.20;99.90;;;;;;4994197;28;20662;-74
2022/12/10 09:39:22;;;;;;;13.63;7.18;;;18.20;99.90;;;;;;4994449;28;20203;-76
2022/12/10 09:42:00;;;;;;;13.15;6.63;;;18.20;99.90;;;;;;4994048;28;20218;-75
2022/12/10 09:44:42;;;;;;;13.27;6.65;;;18.20;99.90;;;;;;4994510;28;20197;-75
2022/12/10 09:47:10;;;;;;;9.65;6.20;;;18.10;99.90;;;;;;4994364;28;20182;-74
2022/12/10 09:49:55;;;;;;;8.57;6.25;;;18.00;99.90;;;;;;4994274;28;20203;-74
2022/12/10 09:52:26;;;;;;;10.02;6.22;;;18.00;99.90;;;;;;4994297;28;20187;-75
2022/12/10 09:54:57;;;;;;;11.60;6.13;;;18.00;99.90;;;;;;4994277;28;20193;-76
2022/12/10 09:57:30;;;;;;;9.88;6.45;;;18.00;99.90;;;;;;4993926;28;20553;-75
2022/12/10 09:59:59;;;;;;;7.95;6.50;;;17.90;99.90;;;;;;4994217;28;20250;-75
2022/12/10 10:02:29;;;;;;;10.25;5.72;;;17.90;99.90;;;;;;4994216;28;20202;-73
2022/12/10 10:05:03;;;;;;;11.00;6.15;;;17.90;99.90;;;;;;4994239;28;20206;-73
2022/12/10 10:07:32;;;;;;;9.93;5.90;;;17.90;99.90;;;;;;4994236;28;20194;-74
2022/12/10 10:10:04;;;;;;;12.13;6.18;;;17.80;99.90;;;;;;4994043;28;20233;-75
2022/12/10 10:12:33;;;;;;;10.73;6.32;;;17.80;99.90;;;;;;4993787;28;20300;-75
2022/12/10 10:15:13;;;;;;;10.82;5.35;;;17.80;99.90;;;;;;4993901;28;20209;-75
2022/12/10 10:17:45;;;;;;;9.85;5.25;;;17.70;99.90;;;;;;4993813;28;20657;-75
2022/12/10 10:20:12;;;;;;;8.07;5.25;;;17.80;99.90;;;;;;4994135;28;20238;-75
2022/12/10 10:22:40;;;;;;;11.25;5.32;;;17.80;99.90;;;;;;4994028;28;20674;-73
2022/12/10 10:25:15;;;;;;;9.57;5.80;;;17.70;99.90;;;;;;4997781;28;20206;-73
2022/12/10 10:27:42;;;;;;;7.55;5.65;;;17.80;99.90;;;;;;5001233;28;20197;-72
2022/12/10 10:30:16;;;;;;;12.98;5.68;;;17.70;99.90;;;;;;4993905;28;20233;-75
2022/12/10 10:32:50;;;;;;;11.15;5.60;;;17.80;99.90;;;;;;4994011;28;20186;-76
2022/12/10 10:35:31;;;;;;;13.85;5.80;;;17.80;99.90;;;;;;4994300;28;20186;-75
2022/12/10 10:38:02;;;;;;;15.32;5.80;;;17.90;99.90;;;;;;4994113;28;20210;-75
2022/12/10 10:40:33;;;;;;;14.93;5.32;;;17.80;99.90;;;;;;4993947;28;20230;-75
2022/12/10 10:43:01;;;;;;;12.68;5.80;;;17.80;99.90;;;;;;4996524;28;20195;-75
2022/12/10 10:45:39;;;;;;;12.63;5.10;;;17.80;99.90;;;;;;4997554;28;20202;-75
2022/12/10 10:48:10;;;;;;;9.95;5.05;;;17.80;99.90;;;;;;4997614;28;20194;-75
2022/12/10 10:50:39;;;;;;;15.30;5.15;;;17.70;99.90;;;;;;4997362;28;20229;-74
2022/12/10 10:56:08;;;;;;;29.45;5.93;;;17.80;99.90;;;;;;5091761;28;20598;-75
2022/12/10 10:58:35;;;;;;;33.35;6.60;;;17.80;99.90;;;;;;5090867;28;20198;-73
2022/12/10 11:01:04;;;;;;;16.67;5.72;;;17.90;99.90;;;;;;5090715;28;20215;-73
2022/12/10 11:03:34;;;;;;;22.58;5.90;;;18.00;99.90;;;;;;5090790;28;20681;-73
2022/12/10 11:06:01;;;;;;;15.00;5.70;;;18.10;99.90;;;;;;5091071;28;20209;-74
2022/12/10 11:08:32;;;;;;;17.80;4.97;;;18.30;99.90;;;;;;5091083;28;20206;-73
2022/12/10 11:11:05;;;;;;;21.90;5.32;;;18.40;99.90;;;;;;5091330;28;20223;-74
2022/12/10 11:13:35;;;;;;;15.80;4.30;;;18.50;99.90;;;;;;5091091;28;20199;-75
2022/12/10 11:16:12;;;;;;;18.27;4.80;;;18.60;99.90;;;;;;5091433;28;20278;-74
2022/12/10 11:18:42;;;;;;;23.17;4.93;;;18.60;99.90;;;;;;5093386;28;20183;-74
2022/12/10 11:21:19;;;;;;;15.20;4.70;;;18.80;99.90;;;;;;5093799;28;20222;-74
2022/12/10 11:23:47;;;;;;;14.15;4.32;;;18.90;99.90;;;;;;5094063;28;20187;-73
2022/12/10 11:26:34;;;;;;;14.27;4.68;;;19.00;99.90;;;;;;5093988;28;20199;-73
2022/12/10 11:29:14;;;;;;;7.95;4.13;;;19.00;99.90;;;;;;5093860;28;20198;-73
2022/12/10 11:31:53;;;;;;;14.05;4.30;;;19.10;99.90;;;;;;5093899;28;20223;-73
2022/12/10 11:34:34;;;;;;;17.95;4.13;;;19.30;99.90;;;;;;5093469;28;20214;-73
2022/12/10 11:37:08;;;;;;;7.22;4.07;;;19.30;99.90;;;;;;5093457;28;20191;-74
2022/12/10 11:40:07;;;;;;;8.00;3.88;;;19.50;99.90;;;;;;5093834;28;20187;-74
2022/12/10 11:42:48;;;;;;;12.15;4.25;;;19.50;99.90;;;;;;5093475;28;20237;-74
2022/12/10 11:45:21;;;;;;;11.18;4.40;;;19.70;99.90;;;;;;5093522;28;20179;-74
2022/12/10 11:48:08;;;;;;;8.88;4.53;;;19.70;99.90;;;;;;5093446;28;20184;-73
2022/12/10 11:50:43;;;;;;;5.85;3.35;;;19.80;99.90;;;;;;5093367;28;20223;-74
2022/12/10 11:53:35;;;;;;;11.48;3.42;;;19.70;99.90;;;;;;5093248;28;20183;-73
2022/12/10 11:56:14;;;;;;;10.55;3.58;;;19.80;99.90;;;;;;5085063;28;20230;-73
2022/12/10 11:58:56;;;;;;;8.55;3.38;;;19.80;99.90;;;;;;5089766;28;20193;-73
2022/12/10 12:01:34;;;;;;;10.88;3.72;;;19.80;99.90;;;;;;5089918;28;20219;-74
2022/12/10 12:04:28;;;;;;;8.73;3.50;;;19.90;99.90;;;;;;5089666;28;20195;-73
2022/12/10 12:07:19;;;;;;;10.82;3.30;;;19.70;99.90;;;;;;5078542;28;20545;-73
2022/12/10 12:09:55;;;;;;;8.93;2.92;;;19.60;99.90;;;;;;5076101;28;20651;-73
2022/12/10 12:12:34;;;;;;;8.85;3.22;;;19.50;99.90;;;;;;5076304;28;20278;-73
2022/12/10 12:15:09;;;;;;;13.50;3.78;;;19.50;99.90;;;;;;5075907;28;20600;-73
2022/12/10 12:17:42;;;;;;;6.13;4.05;;;19.50;99.90;;;;;;5076224;28;20191;-73
2022/12/10 12:20:17;;;;;;;11.20;3.30;;;19.40;99.90;;;;;;5075853;28;20223;-73
2022/12/10 12:22:47;;;;;;;9.05;3.20;;;19.40;99.90;;;;;;5076119;28;20188;-73
2022/12/10 12:25:23;;;;;;;20.63;3.63;;;19.40;99.90;;;;;;5090725;22;20229;-77
2022/12/10 12:27:54;;;;;;;12.70;3.58;;;19.30;99.90;;;;;;5036694;28;20662;-78
2022/12/10 12:30:23;;;;;;;11.50;3.83;;;19.30;99.90;;;;;;5036364;28;20193;-77
2022/12/10 12:32:58;;;;;;;9.90;3.75;;;19.30;99.90;;;;;;5036003;28;20196;-77
2022/12/10 12:35:33;;;;;;;15.60;3.65;;;19.20;99.90;;;;;;5035805;28;20228;-77
2022/12/10 12:38:04;;;;;;;14.60;4.00;;;19.30;99.90;;;;;;5035716;28;20536;-75
2022/12/10 12:40:36;;;;;;;9.30;3.95;;;19.20;99.90;;;;;;5036218;28;20196;-75
2022/12/10 12:43:08;;;;;;;12.45;3.78;;;19.10;99.90;;;;;;5035841;28;20192;-75
2022/12/10 12:45:41;;;;;;;23.77;4.22;;;19.00;99.90;;;;;;5035688;28;20221;-74
2022/12/10 12:48:18;;;;;;;12.90;3.95;;;19.00;99.90;;;;;;5035469;28;20633;-74
2022/12/10 12:50:47;;;;;;;22.35;4.55;;;18.90;99.90;;;;;;5035715;28;20192;-75
2022/12/10 12:53:17;;;;;;;21.27;4.25;;;18.90;99.90;;;;;;5035915;28;20251;-74
2022/12/10 12:55:56;;;;;;;17.98;4.03;;;18.80;99.90;;;;;;5035392;28;20232;-74
2022/12/10 12:58:32;;;;;;;17.80;4.28;;;18.80;99.90;;;;;;5035292;28;20185;-74
2022/12/10 13:01:06;;;;;;;15.63;3.72;;;18.80;99.90;;;;;;5035755;28;20192;-74
2022/12/10 13:03:37;;;;;;;9.98;3.83;;;18.70;99.90;;;;;;5035684;28;20185;-74
2022/12/10 13:06:21;;;;;;;16.08;4.50;;;18.70;99.90;;;;;;5035712;28;20192;-75
2022/12/10 13:08:50;;;;;;;13.48;4.57;;;18.80;99.90;;;;;;5035467;28;20228;-76
2022/12/10 13:11:29;;;;;;;21.30;4.53;;;18.70;99.90;;;;;;5035306;28;20201;-75
2022/12/10 13:14:32;;;;;;;17.73;3.80;;;18.70;99.90;;;;;;5035411;28;22070;-75
2022/12/10 13:17:08;;;;;;;19.10;4.20;;;18.60;99.90;;;;;;5034449;28;20544;-75
2022/12/10 13:19:35;;;;;;;18.23;4.60;;;18.60;99.90;;;;;;5035016;28;20195;-75
2022/12/10 13:22:11;;;;;;;11.65;3.70;;;18.60;99.90;;;;;;5035098;28;20205;-75
2022/12/10 13:25:07;;;;;;;18.75;4.03;;;18.50;99.90;;;;;;5034796;28;20282;-77
2022/12/10 13:27:35;;;;;;;7.07;3.80;;;18.50;99.90;;;;;;5035483;28;20568;-78
2022/12/10 13:30:05;;;;;;;19.50;4.03;;;18.40;99.90;;;;;;5036901;28;20694;-76
2022/12/10 13:32:47;;;;;;;10.63;3.83;;;18.50;99.90;;;;;;5035209;28;20199;-76
2022/12/10 13:35:28;;;;;;;14.23;4.10;;;18.40;99.90;;;;;;5034983;28;20224;-76
2022/12/10 13:37:58;;;;;;;13.30;3.90;;;18.30;99.90;;;;;;5034989;28;20652;-75
2022/12/10 13:46:27;;;;;;;20.63;4.32;;;18.30;99.90;;;;;;5035034;28;20246;-76
2022/12/10 13:48:56;;;;;;;8.27;3.40;;;18.20;99.90;;;;;;5035145;28;20195;-76
2022/12/10 13:51:55;;;;;;;7.53;3.45;;;18.30;99.90;;;;;;5035068;28;20205;-75
2022/12/10 13:54:45;;;;;;;14.73;4.25;;;18.20;99.90;;;;;;4999512;28;20216;-75
2022/12/10 13:57:25;;;;;;;13.40;4.07;;;18.30;99.90;;;;;;5035603;28;20190;-75
2022/12/10 14:00:04;;;;;;;15.35;4.13;;;18.40;99.90;;;;;;5035075;28;20185;-75
2022/12/10 14:02:48;;;;;;;14.82;3.80;;;18.60;99.90;;;;;;5034678;28;20181;-75
2022/12/10 14:05:28;;;;;;;14.68;4.15;;;18.70;99.90;;;;;;5034337;28;20220;-75
2022/12/10 14:07:57;;;;;;;10.38;3.67;;;18.80;99.90;;;;;;5038089;28;20189;-75
2022/12/10 14:10:33;;;;;;;14.07;3.90;;;19.00;99.90;;;;;;5037653;28;20201;-74
2022/12/10 14:13:01;;;;;;;11.27;4.38;;;19.20;99.90;;;;;;5036993;28;20181;-75
2022/12/10 14:15:29;;;;;;;9.90;3.72;;;19.30;99.90;;;;;;5037173;28;20237;-75
2022/12/10 14:18:02;;;;;;;10.38;3.22;;;19.40;99.90;;;;;;5037398;28;20208;-75
2022/12/10 14:20:33;;;;;;;11.10;2.78;;;19.50;99.90;;;;;;5036812;28;20624;-75
2022/12/10 14:25:52;;;;;;;18.48;3.45;;;19.60;99.90;;;;;;5036695;28;20226;-76
2022/12/10 14:28:20;;;;;;;7.22;3.53;;;19.80;99.90;;;;;;5036158;28;20668;-75
2022/12/10 14:30:49;;;;;;;10.88;3.25;;;19.80;99.90;;;;;;5036395;28;20570;-75
2022/12/10 14:33:18;;;;;;;9.20;3.28;;;19.90;99.90;;;;;;5036797;28;20307;-75
2022/12/10 14:35:49;;;;;;;7.68;3.05;;;20.00;99.90;;;;;;5036869;28;20220;-74
2022/12/10 14:38:21;;;;;;;8.27;2.92;;;20.00;99.90;;;;;;5037047;28;20185;-74
2022/12/10 14:40:48;;;;;;;10.00;3.35;;;20.00;99.90;;;;;;5037333;28;20185;-74
2022/12/10 14:43:19;;;;;;;9.80;3.10;;;20.00;99.90;;;;;;5039733;28;20224;-78
2022/12/10 14:45:50;;;;;;;9.18;2.60;;;20.00;99.90;;;;;;5037746;28;20220;-75
2022/12/10 14:48:17;;;;;;;10.80;3.20;;;20.10;99.90;;;;;;5035709;28;20189;-75
2022/12/10 14:50:45;;;;;;;11.75;3.38;;;20.20;99.90;;;;;;5034192;28;20211;-75
2022/12/10 14:53:16;;;;;;;14.40;3.10;;;20.20;99.90;;;;;;5033862;28;20223;-75
2022/12/10 14:55:44;;;;;;;13.68;3.20;;;20.20;99.90;;;;;;5033454;28;20225;-75
2022/12/10 14:58:18;;;;;;;7.95;3.17;;;20.20;99.90;;;;;;5033657;28;20211;-75
2022/12/10 15:00:46;;;;;;;10.65;3.22;;;20.20;99.90;;;;;;5037080;28;20189;-74
2022/12/10 15:03:24;;;;;;;13.32;3.05;;;20.20;99.90;;;;;;5038746;28;20209;-73
2022/12/10 15:05:56;;;;;;;9.73;3.60;;;20.20;99.90;;;;;;5037193;28;20216;-73
2022/12/10 15:08:25;;;;;;;14.38;3.10;;;20.30;99.90;;;;;;5037065;28;20184;-74
2022/12/10 15:10:57;;;;;;;7.65;2.85;;;20.30;99.90;;;;;;5037348;28;20212;-74
2022/12/10 15:13:30;;;;;;;10.48;3.08;;;20.30;99.90;;;;;;5036641;28;20185;-73
2022/12/10 15:15:57;;;;;;;9.73;3.15;;;20.30;99.90;;;;;;5036470;28;20568;-73
2022/12/10 15:18:30;;;;;;;13.38;3.15;;;20.30;99.90;;;;;;5036863;28;20232;-73
2022/12/10 15:21:06;;;;;;;6.55;2.85;;;20.10;99.90;;;;;;5036924;28;20204;-73
2022/12/10 15:23:36;;;;;;;11.85;3.20;;;20.10;99.90;;;;;;5036502;28;20185;-73
2022/12/10 15:26:15;;;;;;;9.50;3.00;;;20.10;99.90;;;;;;5036922;28;20223;-73
2022/12/10 15:28:42;;;;;;;7.68;3.08;;;20.00;99.90;;;;;;5038469;28;20246;-75
2022/12/10 15:31:17;;;;;;;7.30;3.30;;;20.00;99.90;;;;;;5038216;28;20200;-75
2022/12/10 15:33:47;;;;;;;6.35;2.88;;;19.90;99.90;;;;;;5037926;28;20223;-75
2022/12/10 15:36:21;;;;;;;7.15;2.83;;;20.00;99.90;;;;;;5034637;28;20205;-75
2022/12/10 15:38:49;;;;;;;12.02;3.78;;;19.80;99.90;;;;;;5033082;28;20636;-75
2022/12/10 15:41:38;;;;;;;8.48;3.05;;;19.70;99.90;;;;;;5034812;28;20212;-76
2022/12/10 15:44:07;;;;;;;12.30;3.10;;;19.60;99.90;;;;;;5037100;28;20221;-74
2022/12/10 15:46:34;;;;;;;15.13;3.35;;;19.50;99.90;;;;;;5036902;28;20197;-76
2022/12/10 15:49:01;;;;;;;6.05;3.50;;;19.40;99.90;;;;;;5036820;28;20208;-76
2022/12/10 15:51:28;;;;;;;9.85;3.10;;;19.40;99.90;;;;;;5036741;28;20201;-75
2022/12/10 15:53:56;;;;;;;11.48;3.20;;;19.20;99.90;;;;;;5036735;28;20204;-75
2022/12/10 15:56:22;;;;;;;11.55;3.17;;;19.30;99.90;;;;;;5036555;28;20232;-75
2022/12/10 15:58:49;;;;;;;10.57;3.95;;;19.20;99.90;;;;;;5037283;28;20205;-74
2022/12/10 16:01:16;;;;;;;9.57;3.72;;;19.20;99.90;;;;;;5036575;28;20208;-74
2022/12/10 16:03:43;;;;;;;14.90;2.90;;;19.20;99.90;;;;;;5036856;28;20262;-79
2022/12/10 16:06:10;;;;;;;7.50;3.63;;;19.20;99.90;;;;;;5037766;28;20197;-75
2022/12/10 16:08:37;;;;;;;7.65;2.92;;;19.10;99.90;;;;;;5036655;28;20205;-76
2022/12/10 16:11:14;;;;;;;7.28;3.08;;;19.10;99.90;;;;;;5036221;28;20544;-76
2022/12/10 16:13:46;;;;;;;5.47;3.03;;;19.10;99.90;;;;;;5036765;28;20184;-78
2022/12/10 16:16:13;;;;;;;17.95;3.95;;;19.10;99.90;;;;;;5038972;28;20220;-78
2022/12/10 16:18:41;;;;;;;11.85;4.18;;;19.10;99.90;;;;;;5037794;28;20295;-78
2022/12/10 16:21:08;;;;;;;28.13;4.50;;;19.10;99.90;;;;;;5038406;28;20551;-79
2022/12/10 16:23:36;;;;;;;18.52;3.70;;;19.00;99.90;;;;;;5039927;28;20269;-79
2022/12/10 16:26:13;;;;;;;14.85;3.67;;;19.10;99.90;;;;;;5040274;28;20215;-80
2022/12/10 16:28:39;;;;;;;15.25;3.92;;;19.00;99.90;;;;;;5040152;28;20185;-81
2022/12/10 16:31:11;;;;;;;22.23;3.88;;;19.10;99.90;;;;;;5041091;28;20212;-79
2022/12/10 16:33:38;;;;;;;18.63;3.67;;;19.10;99.90;;;;;;5038610;28;20200;-81
2022/12/10 16:36:05;;;;;;;28.42;4.07;;;19.10;99.90;;;;;;5040198;28;20221;-79
2022/12/10 16:38:32;;;;;;;33.40;4.43;;;19.10;99.90;;;;;;5039761;28;20702;-80
2022/12/10 16:41:00;;;;;;;19.30;4.53;;;19.10;99.90;;;;;;5040597;28;20223;-79
2022/12/10 16:43:30;;;;;;;21.42;3.83;;;19.10;99.90;;;;;;5038198;28;20205;-79
2022/12/10 16:45:57;;;;;;;27.88;5.15;;;19.20;99.90;;;;;;5038746;28;20244;-80
2022/12/10 16:48:24;;;;;;;25.20;8.00;;;19.20;99.90;;;;;;5036527;28;20255;-78
2022/12/10 16:50:53;;;;;;;42.53;11.05;;;19.30;99.90;;;;;;5037086;28;20239;-79
2022/12/10 16:53:23;;;;;;;49.55;14.80;;;19.30;99.90;;;;;;5036934;28;20205;-81
2022/12/10 16:55:50;;;;;;;63.22;20.70;;;19.40;99.90;;;;;;5038284;28;20225;-80
2022/12/10 16:58:17;;;;;;;79.05;23.42;;;19.40;99.90;;;;;;5038760;28;20185;-78
2022/12/10 17:00:48;;;;;;;79.78;22.27;;;19.50;99.90;;;;;;5038073;28;20197;-80
2022/12/10 17:03:21;;;;;;;57.13;21.10;;;19.70;99.90;;;;;;5038190;28;20185;-78
2022/12/10 17:05:50;;;;;;;69.05;20.17;;;19.70;99.90;;;;;;5038230;28;20220;-80
2022/12/10 17:08:17;;;;;;;76.45;21.65;;;19.70;99.90;;;;;;5039691;28;20203;-80
2022/12/10 17:13:30;;;;;;;54.95;18.00;;;19.70;99.90;;;;;;5038946;28;20246;-80
2022/12/10 17:15:58;;;;;;;60.53;17.65;;;19.70;99.90;;;;;;5038502;28;20236;-80
2022/12/10 17:18:25;;;;;;;58.03;17.25;;;19.70;99.90;;;;;;5038175;28;20208;-81
2022/12/10 17:20:52;;;;;;;58.70;17.05;;;19.70;99.90;;;;;;5038593;28;20223;-80
2022/12/10 17:23:21;;;;;;;53.38;16.88;;;19.60;99.90;;;;;;5038011;28;20730;-80
2022/12/10 17:25:48;;;;;;;58.78;16.10;;;19.50;99.90;;;;;;5037350;28;20224;-80
2022/12/10 17:28:17;;;;;;;53.10;17.65;;;19.50;99.90;;;;;;5038794;28;20271;-81
2022/12/10 17:30:44;;;;;;;61.88;16.50;;;19.50;99.90;;;;;;5039076;28;20205;-81
2022/12/10 17:33:14;;;;;;;52.75;16.80;;;19.30;99.90;;;;;;5038275;28;20660;-80
2022/12/10 17:35:42;;;;;;;51.22;16.92;;;19.30;99.90;;;;;;5038006;28;20600;-79
2022/12/10 17:38:14;;;;;;;41.47;14.20;;;19.40;99.90;;;;;;5035902;28;20680;-78
2022/12/10 17:40:41;;;;;;;50.00;14.40;;;19.20;99.90;;;;;;5035945;28;20239;-77
2022/12/10 17:43:08;;;;;;;43.83;15.13;;;19.30;99.90;;;;;;5035919;28;20185;-77
2022/12/10 17:45:35;;;;;;;52.92;14.23;;;19.20;99.90;;;;;;5035934;28;20216;-78
2022/12/10 17:48:02;;;;;;;42.47;13.70;;;19.20;99.90;;;;;;5034579;28;20196;-77
2022/12/10 17:50:33;;;;;;;47.38;13.52;;;19.10;99.90;;;;;;5034653;28;20200;-77
2022/12/10 17:53:00;;;;;;;56.70;14.75;;;19.10;99.90;;;;;;5034721;28;20595;-77
2022/12/10 17:55:28;;;;;;;60.28;13.45;;;19.10;99.90;;;;;;5034897;28;20221;-77
2022/12/10 17:57:57;;;;;;;48.45;13.05;;;19.10;99.90;;;;;;5034674;28;20202;-77
2022/12/10 18:00:27;;;;;;;43.45;13.30;;;19.10;99.90;;;;;;5034385;28;20204;-77
2022/12/10 18:02:54;;;;;;;50.42;14.73;;;19.10;99.90;;;;;;5034675;28;20189;-77
2022/12/10 18:05:21;;;;;;;42.47;12.40;;;19.10;99.90;;;;;;5034644;28;20224;-77
2022/12/10 18:07:49;;;;;;;40.70;11.80;;;19.10;99.90;;;;;;5034320;28;20193;-77
2022/12/10 18:10:19;;;;;;;41.78;11.75;;;19.00;99.90;;;;;;5034256;28;20216;-76
2022/12/10 18:12:46;;;;;;;36.58;12.10;;;19.00;99.90;;;;;;5033836;28;20201;-75
2022/12/10 18:15:13;;;;;;;38.85;12.65;;;19.00;99.90;;;;;;5034920;28;20283;-77
2022/12/10 18:17:41;;;;;;;48.22;12.82;;;19.00;99.90;;;;;;5034529;28;20220;-78
2022/12/10 18:20:08;;;;;;;36.55;11.68;;;19.10;99.90;;;;;;5034462;28;20668;-78
2022/12/10 18:22:35;;;;;;;35.20;12.00;;;19.00;99.90;;;;;;5034684;28;20205;-78
2022/12/10 18:25:04;;;;;;;32.72;11.02;;;19.00;99.90;;;;;;5059382;22;20282;-73
2022/12/10 18:27:31;;;;;;;41.30;11.55;;;18.90;99.90;;;;;;5053928;28;20188;-72
2022/12/10 18:29:57;;;;;;;42.80;12.30;;;19.00;99.90;;;;;;5053798;28;20206;-72
2022/12/10 18:32:24;;;;;;;53.88;11.52;;;19.00;99.90;;;;;;5053832;28;20286;-71
2022/12/10 18:34:51;;;;;;;56.47;11.48;;;19.00;99.90;;;;;;5053749;28;20211;-73
2022/12/10 18:37:18;;;;;;;35.15;9.82;;;18.90;99.90;;;;;;5053657;28;20212;-72
2022/12/10 18:39:44;;;;;;;51.30;11.48;;;19.00;99.90;;;;;;5053348;28;20667;-71
2022/12/10 18:42:12;;;;;;;50.53;11.40;;;19.00;99.90;;;;;;5053619;28;20204;-71
2022/12/10 18:44:41;;;;;;;49.05;10.35;;;18.90;99.90;;;;;;5053558;28;20203;-70
2022/12/10 18:47:11;;;;;;;41.50;9.40;;;18.90;99.90;;;;;;5053258;28;20223;-72
2022/12/10 18:49:38;;;;;;;37.88;9.52;;;19.00;99.90;;;;;;5053726;28;20279;-71
2022/12/10 18:52:06;;;;;;;27.52;9.70;;;19.00;99.90;;;;;;5054778;28;20204;-73
2022/12/10 18:54:33;;;;;;;30.10;9.82;;;18.90;99.90;;;;;;5054702;28;20211;-73
2022/12/10 18:56:59;;;;;;;29.05;9.10;;;19.00;99.90;;;;;;5055650;28;20224;-71
2022/12/10 18:59:28;;;;;;;36.45;10.15;;;18.90;99.90;;;;;;5056386;28;20204;-73
2022/12/10 19:01:54;;;;;;;35.50;9.43;;;18.90;99.90;;;;;;5056208;28;20207;-72
2022/12/10 19:04:21;;;;;;;28.95;9.15;;;18.80;99.90;;;;;;5056711;28;20208;-71
2022/12/10 19:06:48;;;;;;;33.13;9.55;;;18.80;99.90;;;;;;5053681;28;20220;-74
2022/12/10 19:09:16;;;;;;;30.08;10.00;;;18.70;99.90;;;;;;5053329;28;20208;-73
2022/12/10 19:11:46;;;;;;;34.13;10.25;;;18.70;99.90;;;;;;5053002;28;20219;-73
2022/12/10 19:14:13;;;;;;;39.72;8.80;;;18.80;99.90;;;;;;5053386;28;20200;-73
2022/12/10 19:16:41;;;;;;;38.05;9.85;;;18.90;99.90;;;;;;5055193;28;20230;-72
2022/12/10 19:19:11;;;;;;;40.08;8.30;;;18.80;99.90;;;;;;5057293;28;20196;-71